createdAt,value
2019-02-27T00:02:23.414Z,5.55
2019-02-27T00:04:55.310Z,5.48
2019-02-27T00:07:31.043Z,5.39
2019-02-27T00:10:06.118Z,5.29
2019-02-27T00:12:40.940Z,5.24
2019-02-27T00:15:14.960Z,5.21
2019-02-27T00:17:51.145Z,5.18
2019-02-27T00:20:23.821Z,5.09
2019-02-27T00:23:01.547Z,5.05
2019-02-27T00:25:35.874Z,5.03
2019-02-27T00:28:03.930Z,5.02
2019-02-27T00:30:37.957Z,5.01
2019-02-27T00:33:06.667Z,4.97
2019-02-27T00:35:39.570Z,4.97
2019-02-27T00:38:10.366Z,4.91
2019-02-27T00:40:43.187Z,4.87
2019-02-27T00:43:19.882Z,4.79
2019-02-27T00:45:51.061Z,4.71
2019-02-27T00:48:25.992Z,4.65
2019-02-27T00:50:54.892Z,4.64
2019-02-27T00:53:25.248Z,4.60
2019-02-27T00:55:57.297Z,4.57
2019-02-27T00:58:29.262Z,4.55
2019-02-27T01:00:59.700Z,4.54
2019-02-27T01:03:31.964Z,4.55
2019-02-27T01:06:05.778Z,4.57
2019-02-27T01:08:42.083Z,4.55
2019-02-27T01:11:18.134Z,4.52
2019-02-27T01:13:46.070Z,4.49
2019-02-27T01:16:18.362Z,4.45
2019-02-27T01:18:51.036Z,4.42
2019-02-27T01:21:23.190Z,4.42
2019-02-27T01:23:53.710Z,4.43
2019-02-27T01:26:25.261Z,4.45
2019-02-27T01:29:03.032Z,4.46
2019-02-27T01:31:47.325Z,4.44
2019-02-27T01:34:11.110Z,4.40
2019-02-27T01:36:41.677Z,4.34
2019-02-27T01:39:14.625Z,4.31
2019-02-27T01:41:45.010Z,4.26
2019-02-27T01:44:24.421Z,4.17
2019-02-27T01:46:52.113Z,4.08
2019-02-27T01:49:27.175Z,4.03
2019-02-27T01:52:02.090Z,3.95
2019-02-27T01:54:31.456Z,3.91
2019-02-27T01:57:02.850Z,3.88
2019-02-27T01:59:38.065Z,3.83
2019-02-27T02:02:08.322Z,3.79
2019-02-27T02:04:42.700Z,3.73
2019-02-27T02:07:19.630Z,3.66
2019-02-27T02:09:52.183Z,3.60
2019-02-27T02:12:33.481Z,3.57
2019-02-27T02:15:17.292Z,3.56
2019-02-27T02:18:32.512Z,3.57
2019-02-27T02:21:37.201Z,3.58
2019-02-27T02:24:30.734Z,3.53
2019-02-27T02:27:36.122Z,3.53
2019-02-27T02:30:45.945Z,3.55
2019-02-27T02:33:40.127Z,3.55
2019-02-27T02:36:36.902Z,3.50
2019-02-27T02:39:47.210Z,3.50
2019-02-27T02:42:59.125Z,3.50
2019-02-27T02:45:40.003Z,3.48
2019-02-27T02:49:06.210Z,3.48
2019-02-27T02:51:40.031Z,3.44
2019-02-27T02:54:55.079Z,3.35
2019-02-27T02:57:58.988Z,3.34
2019-02-27T03:01:04.409Z,3.34
2019-02-27T03:04:12.476Z,3.29
2019-02-27T03:07:21.928Z,3.27
2019-02-27T03:10:25.335Z,3.32
2019-02-27T03:13:42.041Z,3.36
2019-02-27T03:16:55.581Z,3.41
2019-02-27T03:19:55.817Z,3.46
2019-02-27T03:22:54.318Z,3.50
2019-02-27T03:25:55.078Z,3.54
2019-02-27T03:29:04.368Z,3.51
2019-02-27T03:32:12.076Z,3.50
2019-02-27T03:35:27.447Z,3.51
2019-02-27T03:38:14.956Z,3.54
2019-02-27T03:41:13.766Z,3.58
2019-02-27T03:44:10.064Z,3.60
2019-02-27T03:47:23.445Z,3.57
2019-02-27T03:50:23.127Z,3.50
2019-02-27T03:53:29.835Z,3.46
2019-02-27T03:56:19.700Z,3.39
2019-02-27T03:59:42.497Z,3.32
2019-02-27T04:02:49.601Z,3.26
2019-02-27T04:05:58.127Z,3.15
2019-02-27T04:08:57.101Z,3.06
2019-02-27T04:11:28.256Z,3.03
2019-02-27T04:14:04.738Z,3.00
2019-02-27T04:16:34.023Z,2.99
2019-02-27T04:19:12.976Z,2.99
2019-02-27T04:21:40.246Z,2.97
2019-02-27T04:24:13.672Z,2.96
2019-02-27T04:26:44.286Z,2.90
2019-02-27T04:29:14.698Z,2.90
2019-02-27T04:31:46.482Z,2.90
2019-02-27T04:34:16.775Z,2.89
2019-02-27T04:36:52.614Z,2.85
2019-02-27T04:39:22.948Z,2.82
2019-02-27T04:41:55.157Z,2.80
2019-02-27T04:44:30.168Z,2.79
2019-02-27T04:47:00.513Z,2.79
2019-02-27T04:49:34.818Z,2.86
2019-02-27T04:52:07.106Z,2.86
2019-02-27T04:54:41.274Z,2.93
2019-02-27T04:57:11.060Z,2.93
2019-02-27T04:59:41.649Z,2.98
2019-02-27T05:02:14.565Z,3.01
2019-02-27T05:04:45.727Z,3.03
2019-02-27T05:07:20.915Z,3.07
2019-02-27T05:09:51.901Z,3.05
2019-02-27T05:12:23.441Z,3.04
2019-02-27T05:14:55.615Z,3.03
2019-02-27T05:17:28.432Z,3.03
2019-02-27T05:20:05.585Z,3.03
2019-02-27T05:22:37.038Z,3.01
2019-02-27T05:25:19.133Z,2.99
2019-02-27T05:27:49.539Z,3.06
2019-02-27T05:30:21.788Z,3.16
2019-02-27T05:32:52.080Z,3.16
2019-02-27T05:35:24.263Z,3.36
2019-02-27T05:37:56.857Z,3.38
2019-02-27T05:40:30.918Z,3.36
2019-02-27T05:43:01.320Z,3.34
2019-02-27T05:45:32.938Z,3.31
2019-02-27T05:48:03.265Z,3.27
2019-02-27T05:50:35.356Z,3.30
2019-02-27T05:53:05.697Z,3.27
2019-02-27T05:55:39.024Z,3.22
2019-02-27T05:58:12.690Z,3.09
2019-02-27T06:00:43.369Z,3.09
2019-02-27T06:03:18.293Z,3.07
2019-02-27T06:05:49.760Z,3.04
2019-02-27T06:08:20.247Z,3.03
2019-02-27T06:11:21.347Z,2.97
2019-02-27T06:13:32.171Z,2.90
2019-02-27T06:16:09.421Z,2.90
2019-02-27T06:18:39.886Z,2.90
2019-02-27T06:21:26.259Z,2.88
2019-02-27T06:23:56.895Z,2.92
2019-02-27T06:26:32.325Z,2.95
2019-02-27T06:29:01.980Z,2.96
2019-02-27T06:31:36.821Z,3.02
2019-02-27T06:34:07.980Z,3.09
2019-02-27T06:36:42.791Z,3.11
2019-02-27T06:39:12.121Z,3.15
2019-02-27T06:42:02.636Z,3.26
2019-02-27T06:44:29.661Z,3.39
2019-02-27T06:47:10.591Z,3.49
2019-02-27T06:49:51.963Z,3.51
2019-02-27T06:52:23.228Z,3.45
2019-02-27T06:54:54.107Z,3.49
2019-02-27T06:57:24.410Z,3.61
2019-02-27T06:59:57.485Z,3.71
2019-02-27T07:02:29.877Z,3.77
2019-02-27T07:05:00.666Z,3.91
2019-02-27T07:07:31.279Z,4.26
2019-02-27T07:10:05.297Z,4.54
2019-02-27T07:12:35.891Z,4.62
2019-02-27T07:15:07.302Z,4.73
2019-02-27T07:17:37.638Z,4.85
2019-02-27T07:20:10.079Z,4.97
2019-02-27T07:22:53.852Z,5.07
2019-02-27T07:25:17.890Z,5.15
2019-02-27T07:28:00.388Z,5.26
2019-02-27T07:30:34.511Z,5.25
2019-02-27T07:33:06.689Z,5.25
2019-02-27T07:35:40.194Z,5.31
2019-02-27T07:38:10.625Z,5.33
2019-02-27T07:40:43.530Z,5.38
2019-02-27T07:43:15.866Z,5.44
2019-02-27T07:45:46.219Z,5.43
2019-02-27T07:48:19.858Z,5.45
2019-02-27T07:50:50.482Z,5.58
2019-02-27T07:53:20.840Z,5.70
2019-02-27T07:55:54.048Z,5.78
2019-02-27T07:58:29.280Z,6.06
2019-02-27T08:00:58.954Z,6.06
2019-02-27T08:03:39.716Z,6.29
2019-02-27T08:06:14.286Z,6.55
2019-02-27T08:08:44.822Z,6.78
2019-02-27T08:11:19.335Z,6.95
2019-02-27T08:13:52.321Z,7.14
2019-02-27T08:16:23.853Z,7.46
2019-02-27T08:18:55.610Z,11.83
2019-02-27T08:21:26.441Z,18.07
2019-02-27T08:24:06.709Z,22.50
2019-02-27T08:26:36.411Z,25.70
2019-02-27T08:29:07.529Z,27.27
2019-02-27T08:32:02.066Z,27.46
2019-02-27T08:34:12.681Z,26.36
2019-02-27T08:36:44.172Z,24.92
2019-02-27T08:39:14.928Z,25.41
2019-02-27T08:41:54.155Z,27.42
2019-02-27T08:44:33.284Z,28.63
2019-02-27T08:47:01.169Z,30.02
2019-02-27T08:49:32.795Z,31.03
2019-02-27T08:52:15.626Z,31.01
2019-02-27T08:54:45.493Z,29.89
2019-02-27T08:57:15.923Z,28.76
2019-02-27T08:59:50.813Z,28.13
2019-02-27T09:02:21.289Z,27.25
2019-02-27T09:04:55.594Z,26.44
2019-02-27T09:07:30.210Z,25.93
2019-02-27T09:10:00.854Z,25.84
2019-02-27T09:12:31.349Z,25.67
2019-02-27T09:15:02.028Z,28.60
2019-02-27T09:17:33.173Z,30.48
2019-02-27T09:20:06.941Z,31.07
2019-02-27T09:22:37.666Z,30.54
2019-02-27T09:25:12.530Z,30.73
2019-02-27T09:27:44.022Z,32.37
2019-02-27T09:30:15.608Z,33.57
2019-02-27T09:32:47.680Z,34.74
2019-02-27T09:35:18.489Z,34.42
2019-02-27T09:37:52.450Z,34.05
2019-02-27T09:40:30.011Z,35.36
2019-02-27T09:43:00.647Z,35.36
2019-02-27T09:45:35.357Z,34.95
2019-02-27T09:48:05.318Z,35.05
2019-02-27T09:50:39.226Z,35.90
2019-02-27T09:53:17.575Z,35.53
2019-02-27T09:55:48.107Z,36.04
2019-02-27T09:58:18.958Z,36.96
2019-02-27T10:00:52.417Z,37.57
2019-02-27T10:03:22.953Z,38.37
2019-02-27T10:05:56.232Z,38.41
2019-02-27T10:08:28.361Z,38.74
2019-02-27T10:10:58.793Z,39.66
2019-02-27T10:13:35.451Z,40.44
2019-02-27T10:16:05.355Z,40.31
2019-02-27T10:18:36.273Z,40.55
2019-02-27T10:21:09.377Z,40.63
2019-02-27T10:23:39.414Z,40.44
2019-02-27T10:26:10.008Z,40.06
2019-02-27T10:28:40.915Z,40.68
2019-02-27T10:31:15.667Z,40.13
2019-02-27T10:33:50.997Z,40.13
2019-02-27T10:36:21.685Z,39.17
2019-02-27T10:38:53.235Z,38.43
2019-02-27T10:41:44.934Z,38.86
2019-02-27T10:44:20.071Z,38.24
2019-02-27T10:46:43.547Z,38.66
2019-02-27T10:49:15.886Z,38.75
2019-02-27T10:51:59.091Z,38.10
2019-02-27T10:54:29.720Z,37.38
2019-02-27T10:57:14.052Z,32.99
2019-02-27T10:59:48.210Z,27.69
2019-02-27T11:02:20.325Z,23.88
2019-02-27T11:05:08.748Z,21.72
2019-02-27T11:07:39.608Z,20.48
2019-02-27T11:10:13.650Z,19.52
2019-02-27T11:12:51.233Z,18.82
2019-02-27T11:15:41.384Z,18.14
2019-02-27T11:18:06.352Z,18.14
2019-02-27T11:20:42.290Z,17.92
2019-02-27T11:23:13.097Z,17.79
2019-02-27T11:25:44.736Z,17.65
2019-02-27T11:28:15.130Z,17.49
2019-02-27T11:30:46.537Z,17.35
2019-02-27T11:33:25.554Z,17.31
2019-02-27T11:35:53.377Z,17.28
2019-02-27T11:38:24.804Z,17.23
2019-02-27T11:41:00.502Z,17.19
2019-02-27T11:43:31.402Z,17.20
2019-02-27T11:46:02.079Z,17.24
2019-02-27T11:48:34.129Z,17.30
2019-02-27T11:51:04.560Z,17.33
2019-02-27T11:53:36.574Z,17.33
2019-02-27T11:56:07.140Z,17.39
2019-02-27T11:58:43.793Z,17.47
2019-02-27T12:01:21.867Z,17.51
2019-02-27T12:03:50.568Z,17.52
2019-02-27T12:06:21.480Z,17.51
2019-02-27T12:09:04.422Z,17.51
2019-02-27T12:11:36.483Z,17.58
2019-02-27T12:14:09.894Z,17.58
2019-02-27T12:16:43.324Z,17.63
2019-02-27T12:19:14.415Z,17.66
2019-02-27T12:21:45.920Z,17.67
2019-02-27T12:24:27.417Z,17.71
2019-02-27T12:26:53.254Z,17.76
2019-02-27T12:29:35.454Z,17.83
2019-02-27T12:31:55.783Z,17.87
2019-02-27T12:34:26.633Z,17.90
2019-02-27T12:36:59.750Z,17.94
2019-02-27T12:39:30.623Z,17.99
2019-02-27T12:42:04.137Z,18.04
2019-02-27T12:44:39.532Z,18.06
2019-02-27T12:47:11.189Z,18.12
2019-02-27T12:49:41.779Z,18.17
2019-02-27T12:52:24.079Z,18.20
2019-02-27T12:54:53.088Z,18.25
2019-02-27T12:57:26.645Z,18.25
2019-02-27T13:00:01.241Z,18.26
2019-02-27T13:02:35.615Z,18.27
2019-02-27T13:05:06.750Z,18.31
2019-02-27T13:07:37.339Z,18.35
2019-02-27T13:10:09.935Z,18.38
2019-02-27T13:12:41.630Z,18.41
2019-02-27T13:15:16.878Z,18.43
2019-02-27T13:17:49.119Z,18.49
2019-02-27T13:20:21.951Z,18.54
2019-02-27T13:22:52.392Z,18.59
2019-02-27T13:25:25.685Z,18.62
2019-02-27T13:27:56.601Z,18.66
2019-02-27T13:30:27.023Z,18.70
2019-02-27T13:33:06.667Z,18.70
2019-02-27T13:35:37.736Z,18.76
2019-02-27T13:38:08.130Z,18.75
2019-02-27T13:40:41.050Z,18.75
2019-02-27T13:43:11.355Z,18.75
2019-02-27T13:45:41.929Z,18.77
2019-02-27T13:48:12.557Z,18.81
2019-02-27T13:50:44.188Z,18.84
2019-02-27T13:53:16.452Z,18.86
2019-02-27T13:55:50.455Z,18.88
2019-02-27T13:58:23.101Z,18.90
2019-02-27T14:01:44.709Z,18.93
2019-02-27T14:03:28.741Z,18.94
2019-02-27T14:06:09.005Z,18.93
2019-02-27T14:08:33.333Z,18.91
2019-02-27T14:11:06.389Z,18.86
2019-02-27T14:13:36.674Z,18.82
2019-02-27T14:16:11.848Z,18.82
2019-02-27T14:18:55.994Z,18.81
2019-02-27T14:21:24.952Z,18.81
2019-02-27T14:23:57.016Z,18.80
2019-02-27T14:26:29.676Z,18.78
2019-02-27T14:28:59.985Z,18.77
2019-02-27T14:31:32.094Z,18.74
2019-02-27T14:34:02.508Z,18.77
2019-02-27T14:36:49.061Z,18.78
2019-02-27T14:39:21.220Z,18.76
2019-02-27T14:41:53.177Z,18.80
2019-02-27T14:44:24.165Z,18.79
2019-02-27T14:46:56.090Z,18.80
2019-02-27T14:49:31.204Z,18.77
2019-02-27T14:52:01.712Z,18.77
2019-02-27T14:54:33.584Z,18.71
2019-02-27T14:57:04.352Z,18.68
2019-02-27T14:59:34.940Z,18.67
2019-02-27T15:02:08.720Z,18.71
2019-02-27T15:04:42.281Z,18.72
2019-02-27T15:07:14.473Z,18.72
2019-02-27T15:09:50.309Z,18.69
2019-02-27T15:12:23.281Z,18.70
2019-02-27T15:14:53.907Z,18.66
2019-02-27T15:17:24.411Z,18.66
2019-02-27T15:19:55.290Z,18.65
2019-02-27T15:22:26.538Z,18.62
2019-02-27T15:25:00.283Z,18.57
2019-02-27T15:27:30.664Z,18.48
2019-02-27T15:30:02.837Z,18.38
2019-02-27T15:32:36.398Z,18.36
2019-02-27T15:35:07.694Z,18.36
2019-02-27T15:37:49.577Z,18.29
2019-02-27T15:40:16.998Z,18.24
2019-02-27T15:42:47.703Z,18.19
2019-02-27T15:45:21.844Z,18.16
2019-02-27T15:47:52.512Z,18.00
2019-02-27T15:50:30.162Z,17.95
2019-02-27T15:53:14.989Z,18.00
2019-02-27T15:55:37.977Z,17.95
2019-02-27T15:58:08.555Z,17.85
2019-02-27T16:00:42.568Z,17.69
2019-02-27T16:03:12.892Z,17.64
2019-02-27T16:05:55.457Z,17.61
2019-02-27T16:08:27.130Z,17.59
2019-02-27T16:10:57.423Z,17.53
2019-02-27T16:13:35.423Z,17.38
2019-02-27T16:16:13.374Z,17.25
2019-02-27T16:18:45.937Z,17.06
2019-02-27T16:21:17.535Z,17.02
2019-02-27T16:23:52.798Z,16.95
2019-02-27T16:26:27.023Z,16.89
2019-02-27T16:29:02.646Z,16.86
2019-02-27T16:31:37.173Z,16.75
2019-02-27T16:34:07.714Z,16.77
2019-02-27T16:36:39.743Z,16.70
2019-02-27T16:39:10.818Z,16.52
2019-02-27T16:41:47.842Z,16.41
2019-02-27T16:44:21.435Z,16.32
2019-02-27T16:46:52.333Z,16.10
2019-02-27T16:49:28.440Z,15.75
2019-02-27T16:51:58.884Z,15.75
2019-02-27T16:54:29.500Z,15.59
2019-02-27T16:57:02.443Z,15.44
2019-02-27T16:59:34.449Z,15.34
2019-02-27T17:02:08.563Z,15.22
2019-02-27T17:04:39.149Z,15.07
2019-02-27T17:07:09.752Z,14.91
2019-02-27T17:10:29.192Z,14.58
2019-02-27T17:12:28.283Z,14.58
2019-02-27T17:15:09.673Z,14.49
2019-02-27T17:17:36.448Z,14.40
2019-02-27T17:20:12.691Z,14.35
2019-02-27T17:22:44.935Z,14.29
2019-02-27T17:25:15.588Z,14.09
2019-02-27T17:27:49.816Z,13.94
2019-02-27T17:30:36.594Z,13.74
2019-02-27T17:33:18.168Z,13.60
2019-02-27T17:35:46.888Z,13.52
2019-02-27T17:38:17.930Z,13.48
2019-02-27T17:40:50.213Z,13.46
2019-02-27T17:43:20.798Z,13.44
2019-02-27T17:45:55.160Z,13.40
2019-02-27T17:48:25.851Z,13.31
2019-02-27T17:50:58.155Z,13.14
2019-02-27T17:53:30.001Z,12.98
2019-02-27T17:56:02.070Z,12.90
2019-02-27T17:58:38.524Z,12.89
2019-02-27T18:01:09.861Z,12.90
2019-02-27T18:03:43.576Z,12.90
2019-02-27T18:06:20.868Z,12.89
2019-02-27T18:08:52.398Z,12.68
2019-02-27T18:11:24.387Z,12.68
2019-02-27T18:13:57.992Z,12.55
2019-02-27T18:16:29.959Z,12.58
2019-02-27T18:19:04.324Z,12.53
2019-02-27T18:21:36.292Z,12.50
2019-02-27T18:24:19.500Z,12.41
2019-02-27T18:26:56.449Z,12.31
2019-02-27T18:29:31.245Z,12.19
2019-02-27T18:32:06.115Z,12.17
2019-02-27T18:34:42.632Z,12.12
2019-02-27T18:37:14.532Z,12.04
2019-02-27T18:39:45.151Z,11.95
2019-02-27T18:42:20.697Z,11.83
2019-02-27T18:44:50.956Z,11.75
2019-02-27T18:47:25.484Z,11.76
2019-02-27T18:49:55.807Z,11.68
2019-02-27T18:52:26.475Z,11.56
2019-02-27T18:55:04.175Z,11.46
2019-02-27T18:57:35.083Z,11.36
2019-02-27T19:00:07.783Z,11.25
2019-02-27T19:03:11.394Z,11.30
2019-02-27T19:05:22.366Z,11.36
2019-02-27T19:07:55.253Z,11.44
2019-02-27T19:10:29.834Z,11.46
2019-02-27T19:13:01.068Z,11.52
2019-02-27T19:15:33.134Z,11.54
2019-02-27T19:18:06.629Z,11.46
2019-02-27T19:20:37.388Z,11.34
2019-02-27T19:23:17.088Z,11.29
2019-02-27T19:25:43.635Z,11.25
2019-02-27T19:28:14.006Z,11.22
2019-02-27T19:30:44.392Z,11.24
2019-02-27T19:33:15.022Z,11.24
2019-02-27T19:35:46.846Z,11.23
2019-02-27T19:38:17.467Z,11.23
2019-02-27T19:40:52.138Z,11.25
2019-02-27T19:43:24.046Z,11.21
2019-02-27T19:45:56.031Z,11.21
2019-02-27T19:48:30.585Z,11.22
2019-02-27T19:51:00.907Z,11.13
2019-02-27T19:53:34.346Z,11.11
2019-02-27T19:56:04.823Z,11.03
2019-02-27T19:58:35.841Z,10.96
2019-02-27T20:01:11.334Z,11.01
2019-02-27T20:03:41.957Z,11.05
2019-02-27T20:06:13.570Z,11.05
2019-02-27T20:08:45.397Z,10.95
2019-02-27T20:11:17.538Z,10.86
2019-02-27T20:13:49.513Z,10.86
2019-02-27T20:16:21.702Z,10.83
2019-02-27T20:19:00.582Z,10.74
2019-02-27T20:21:31.643Z,10.78
2019-02-27T20:24:14.082Z,10.71
2019-02-27T20:26:44.417Z,10.73
2019-02-27T20:29:14.777Z,10.74
2019-02-27T20:31:48.379Z,10.67
2019-02-27T20:34:18.955Z,10.61
2019-02-27T20:36:49.319Z,10.56
2019-02-27T20:39:24.399Z,10.44
2019-02-27T20:41:54.846Z,10.41
2019-02-27T20:44:30.639Z,10.27
2019-02-27T20:47:08.134Z,10.29
2019-02-27T20:49:38.760Z,10.23
2019-02-27T20:52:14.512Z,10.37
2019-02-27T20:54:41.145Z,10.37
2019-02-27T20:57:11.528Z,10.57
2019-02-27T20:59:42.137Z,10.79
2019-02-27T21:02:12.765Z,10.74
2019-02-27T21:04:44.891Z,10.66
2019-02-27T21:07:22.039Z,10.66
2019-02-27T21:09:49.777Z,10.62
2019-02-27T21:12:24.318Z,10.61
2019-02-27T21:14:57.931Z,10.70
2019-02-27T21:17:32.706Z,10.66
2019-02-27T21:20:04.530Z,10.58
2019-02-27T21:22:35.032Z,10.47
2019-02-27T21:25:12.076Z,10.51
2019-02-27T21:27:52.551Z,10.47
2019-02-27T21:30:19.103Z,10.37
2019-02-27T21:32:50.960Z,10.30
2019-02-27T21:35:28.619Z,10.22
2019-02-27T21:37:57.594Z,10.15
2019-02-27T21:40:33.456Z,10.10
2019-02-27T21:43:13.713Z,10.24
2019-02-27T21:45:54.412Z,10.36
2019-02-27T21:48:26.715Z,10.14
2019-02-27T21:50:57.127Z,9.99
2019-02-27T21:53:30.087Z,9.92
2019-02-27T21:56:07.196Z,9.88
2019-02-27T21:58:37.948Z,9.93
2019-02-27T22:01:08.248Z,9.92
2019-02-27T22:03:50.095Z,9.76
2019-02-27T22:06:10.910Z,9.60
2019-02-27T22:08:42.722Z,9.27
2019-02-27T22:11:14.908Z,9.27
2019-02-27T22:13:46.940Z,9.19
2019-02-27T22:16:17.462Z,9.25
2019-02-27T22:18:51.152Z,9.19
2019-02-27T22:21:22.790Z,9.14
2019-02-27T22:23:55.119Z,9.14
2019-02-27T22:26:25.519Z,9.19
2019-02-27T22:28:56.120Z,9.18
2019-02-27T22:31:27.777Z,9.20
2019-02-27T22:33:59.395Z,9.24
2019-02-27T22:36:29.800Z,9.24
2019-02-27T22:39:01.185Z,9.26
2019-02-27T22:41:35.171Z,9.30
2019-02-27T22:44:05.721Z,9.30
2019-02-27T22:46:36.101Z,9.31
2019-02-27T22:49:06.703Z,9.32
2019-02-27T22:51:38.356Z,9.37
2019-02-27T22:54:08.947Z,9.37
2019-02-27T22:56:40.257Z,9.30
2019-02-27T22:59:15.393Z,9.25
2019-02-27T23:01:50.948Z,9.14
2019-02-27T23:04:21.727Z,9.01
2019-02-27T23:06:55.904Z,8.95
2019-02-27T23:09:26.572Z,8.96
2019-02-27T23:11:57.149Z,9.01
2019-02-27T23:14:27.804Z,8.94
2019-02-27T23:17:00.630Z,8.85
2019-02-27T23:19:32.912Z,8.75
2019-02-27T23:22:05.155Z,8.66
2019-02-27T23:24:35.479Z,8.51
2019-02-27T23:27:05.825Z,8.30
2019-02-27T23:29:39.879Z,8.10
2019-02-27T23:32:10.500Z,7.96
2019-02-27T23:34:41.743Z,7.84
2019-02-27T23:37:12.897Z,7.74
2019-02-27T23:39:44.232Z,7.63
2019-02-27T23:42:14.849Z,7.52
2019-02-27T23:44:45.560Z,7.48
2019-02-27T23:47:19.406Z,7.48
2019-02-27T23:49:49.737Z,7.45
2019-02-27T23:52:22.382Z,7.50
2019-02-27T23:54:53.339Z,7.61
2019-02-27T23:57:25.324Z,7.62
2019-02-27T23:59:56.449Z,7.61
